createdAt,value
2017-06-27T00:01:23.188Z,95.90
2017-06-27T00:03:49.487Z,95.80
2017-06-27T00:06:16.494Z,95.60
2017-06-27T00:08:42.794Z,95.50
2017-06-27T00:11:09.057Z,95.80
2017-06-27T00:13:35.341Z,95.80
2017-06-27T00:16:01.613Z,96.00
2017-06-27T00:18:28.662Z,96.30
2017-06-27T00:20:54.946Z,96.20
2017-06-27T00:23:21.266Z,96.50
2017-06-27T00:25:47.562Z,96.40
2017-06-27T00:28:14.606Z,96.90
2017-06-27T00:30:41.646Z,97.40
2017-06-27T00:33:07.954Z,97.40
2017-06-27T00:35:34.241Z,97.30
2017-06-27T00:38:00.523Z,97.00
2017-06-27T00:40:26.827Z,96.40
2017-06-27T00:42:53.102Z,96.80
2017-06-27T00:45:20.149Z,96.10
2017-06-27T00:47:46.433Z,96.00
2017-06-27T00:50:12.719Z,96.20
2017-06-27T00:52:39.754Z,95.70
2017-06-27T00:55:06.014Z,95.70
2017-06-27T00:57:32.312Z,95.40
2017-06-27T00:59:58.581Z,95.30
2017-06-27T01:02:24.873Z,95.40
2017-06-27T01:04:51.893Z,96.20
2017-06-27T01:07:18.173Z,96.10
2017-06-27T01:09:45.186Z,95.90
2017-06-27T01:12:11.766Z,95.90
2017-06-27T01:14:38.045Z,96.40
2017-06-27T01:17:04.339Z,96.50
2017-06-27T01:19:30.615Z,96.40
2017-06-27T01:21:57.654Z,95.60
2017-06-27T01:24:23.934Z,95.60
2017-06-27T01:26:50.201Z,96.10
2017-06-27T01:29:16.491Z,96.70
2017-06-27T01:31:42.794Z,96.80
2017-06-27T01:34:09.905Z,95.80
2017-06-27T01:36:36.232Z,96.00
2017-06-27T01:39:02.545Z,96.10
2017-06-27T01:41:28.842Z,96.30
2017-06-27T01:43:55.892Z,96.40
2017-06-27T01:46:22.215Z,96.40
2017-06-27T01:48:48.522Z,96.10
2017-06-27T01:51:15.607Z,96.60
2017-06-27T01:53:41.911Z,96.60
2017-06-27T01:56:08.975Z,96.70
2017-06-27T01:58:35.265Z,96.70
2017-06-27T02:01:01.551Z,97.30
2017-06-27T02:03:27.848Z,97.70
2017-06-27T02:05:54.375Z,97.20
2017-06-27T02:08:20.649Z,97.80
2017-06-27T02:10:47.018Z,97.60
2017-06-27T02:13:13.322Z,97.20
2017-06-27T02:15:39.619Z,97.20
2017-06-27T02:18:05.912Z,97.30
2017-06-27T02:20:32.179Z,97.30
2017-06-27T02:22:59.194Z,97.20
2017-06-27T02:25:25.478Z,97.10
2017-06-27T02:27:51.782Z,97.70
2017-06-27T02:30:18.083Z,97.70
2017-06-27T02:32:44.350Z,97.30
2017-06-27T02:35:10.632Z,98.10
2017-06-27T02:37:36.923Z,97.50
2017-06-27T02:40:03.229Z,97.50
2017-06-27T02:42:30.243Z,97.40
2017-06-27T02:44:56.535Z,97.40
2017-06-27T02:47:22.826Z,97.10
2017-06-27T02:49:49.850Z,96.50
2017-06-27T02:52:16.129Z,96.50
2017-06-27T02:54:43.173Z,96.50
2017-06-27T02:57:09.455Z,96.70
2017-06-27T02:59:35.727Z,96.60
2017-06-27T03:02:02.000Z,96.70
2017-06-27T03:04:28.295Z,96.50
2017-06-27T03:06:54.601Z,97.20
2017-06-27T03:09:21.639Z,97.80
2017-06-27T03:11:48.670Z,98.50
2017-06-27T03:14:15.730Z,98.00
2017-06-27T03:16:42.750Z,97.60
2017-06-27T03:19:09.017Z,97.50
2017-06-27T03:21:35.307Z,97.50
2017-06-27T03:24:01.592Z,97.60
2017-06-27T03:26:27.879Z,97.70
2017-06-27T03:28:54.164Z,97.40
2017-06-27T03:31:20.439Z,97.20
2017-06-27T03:33:46.721Z,97.20
2017-06-27T03:36:13.017Z,96.90
2017-06-27T03:38:39.312Z,97.10
2017-06-27T03:41:05.585Z,96.90
2017-06-27T03:43:32.611Z,97.30
2017-06-27T03:45:58.897Z,97.30
2017-06-27T03:48:25.175Z,97.60
2017-06-27T03:50:52.197Z,98.00
2017-06-27T03:53:18.478Z,97.90
2017-06-27T03:55:44.769Z,98.10
2017-06-27T03:58:11.826Z,98.80
2017-06-27T04:00:38.837Z,98.80
2017-06-27T04:03:05.148Z,98.80
2017-06-27T04:05:31.422Z,98.50
2017-06-27T04:07:57.707Z,98.80
2017-06-27T04:10:23.976Z,98.80
2017-06-27T04:12:50.267Z,98.50
2017-06-27T04:15:16.539Z,98.50
2017-06-27T04:17:42.830Z,98.70
2017-06-27T04:20:09.094Z,98.80
2017-06-27T04:22:36.116Z,99.10
2017-06-27T04:25:02.402Z,99.10
2017-06-27T04:27:28.676Z,99.00
2017-06-27T04:29:54.940Z,99.20
2017-06-27T04:32:21.978Z,99.50
2017-06-27T04:34:49.033Z,99.00
2017-06-27T04:37:15.329Z,98.60
2017-06-27T04:39:41.633Z,98.80
2017-06-27T04:42:07.908Z,99.20
2017-06-27T04:44:34.228Z,99.60
2017-06-27T04:47:00.480Z,99.50
2017-06-27T04:49:26.887Z,99.60
2017-06-27T04:51:53.158Z,99.70
2017-06-27T04:54:20.174Z,99.60
2017-06-27T04:56:46.447Z,99.60
2017-06-27T04:59:12.726Z,99.90
2017-06-27T05:01:38.989Z,99.50
2017-06-27T05:04:05.258Z,99.20
2017-06-27T05:06:32.378Z,98.90
2017-06-27T05:08:58.647Z,99.20
2017-06-27T05:11:24.913Z,99.70
2017-06-27T05:13:51.204Z,99.90
2017-06-27T05:16:17.485Z,99.90
2017-06-27T05:18:43.787Z,99.80
2017-06-27T05:21:10.813Z,99.40
2017-06-27T05:23:37.081Z,99.30
2017-06-27T05:26:04.088Z,99.50
2017-06-27T05:28:30.384Z,99.20
2017-06-27T05:30:56.672Z,99.50
2017-06-27T05:33:22.976Z,99.00
2017-06-27T05:35:49.241Z,99.30
2017-06-27T05:38:15.555Z,99.40
2017-06-27T05:40:41.818Z,99.60
2017-06-27T05:43:08.114Z,99.30
2017-06-27T05:45:34.389Z,99.00
2017-06-27T05:48:00.657Z,98.80
2017-06-27T05:50:26.931Z,98.60
2017-06-27T05:52:53.218Z,98.50
2017-06-27T05:55:19.499Z,98.80
2017-06-27T05:57:45.763Z,98.90
2017-06-27T06:00:12.049Z,99.00
2017-06-27T06:02:38.339Z,98.70
2017-06-27T06:05:04.626Z,98.80
2017-06-27T06:07:30.950Z,98.60
2017-06-27T06:09:57.263Z,98.40
2017-06-27T06:12:23.571Z,98.80
2017-06-27T06:14:49.833Z,98.90
2017-06-27T06:17:16.123Z,98.50
2017-06-27T06:19:42.371Z,98.90
2017-06-27T06:22:09.395Z,98.80
2017-06-27T06:24:35.676Z,98.80
2017-06-27T06:27:01.973Z,98.40
2017-06-27T06:29:28.996Z,98.50
2017-06-27T06:31:55.257Z,98.50
2017-06-27T06:34:21.535Z,98.90
2017-06-27T06:36:47.815Z,98.80
2017-06-27T06:39:14.854Z,97.90
2017-06-27T06:41:41.163Z,97.90
2017-06-27T06:44:07.484Z,97.60
2017-06-27T06:46:33.788Z,97.90
2017-06-27T06:49:07.037Z,98.00
2017-06-27T06:51:34.256Z,95.90
2017-06-27T06:54:00.588Z,95.80
2017-06-27T06:56:27.630Z,95.60
2017-06-27T06:58:53.974Z,95.50
2017-06-27T07:01:21.009Z,95.70
2017-06-27T07:03:47.327Z,95.60
2017-06-27T07:06:13.619Z,95.50
2017-06-27T07:08:39.902Z,94.60
2017-06-27T07:11:06.186Z,95.00
2017-06-27T07:13:33.116Z,94.20
2017-06-27T07:15:59.421Z,94.90
2017-06-27T07:18:26.433Z,94.10
2017-06-27T07:20:52.731Z,94.00
2017-06-27T07:23:19.031Z,93.80
2017-06-27T07:25:46.061Z,93.40
2017-06-27T07:28:12.317Z,93.40
2017-06-27T07:30:39.336Z,92.80
2017-06-27T07:33:06.370Z,91.90
2017-06-27T07:35:32.639Z,91.80
2017-06-27T07:37:59.660Z,91.30
2017-06-27T07:40:25.953Z,91.20
2017-06-27T07:42:52.254Z,91.90
2017-06-27T07:45:18.524Z,91.40
2017-06-27T07:47:44.796Z,91.10
2017-06-27T07:50:11.818Z,91.40
2017-06-27T07:52:38.115Z,91.10
2017-06-27T07:55:04.387Z,91.30
2017-06-27T07:57:30.641Z,90.60
2017-06-27T07:59:56.958Z,90.20
2017-06-27T08:02:23.971Z,89.70
2017-06-27T08:04:50.274Z,89.70
2017-06-27T08:07:16.573Z,87.90
2017-06-27T08:09:42.893Z,88.50
2017-06-27T08:12:09.911Z,90.30
2017-06-27T08:14:36.183Z,89.70
2017-06-27T08:17:02.471Z,86.80
2017-06-27T08:19:28.817Z,86.90
2017-06-27T08:21:55.978Z,86.30
2017-06-27T08:24:22.241Z,86.30
2017-06-27T08:26:48.506Z,85.80
2017-06-27T08:29:14.806Z,85.20
2017-06-27T08:31:41.139Z,84.80
2017-06-27T08:34:14.389Z,84.70
2017-06-27T08:36:41.461Z,83.70
2017-06-27T08:39:08.567Z,83.60
2017-06-27T08:41:35.619Z,83.80
2017-06-27T08:44:01.906Z,83.70
2017-06-27T08:46:28.455Z,81.10
2017-06-27T08:48:55.811Z,82.00
2017-06-27T08:51:22.855Z,82.00
2017-06-27T08:53:49.798Z,80.10
2017-06-27T08:56:16.853Z,82.40
2017-06-27T08:58:43.133Z,82.40
2017-06-27T09:01:10.150Z,84.50
2017-06-27T09:03:36.422Z,84.40
2017-06-27T09:06:02.702Z,83.30
2017-06-27T09:08:29.008Z,83.00
2017-06-27T09:10:55.945Z,83.20
2017-06-27T09:13:22.259Z,83.60
2017-06-27T09:15:48.545Z,85.70
2017-06-27T09:18:15.561Z,82.00
2017-06-27T09:20:41.846Z,82.00
2017-06-27T09:23:08.129Z,81.20
2017-06-27T09:25:34.415Z,81.60
2017-06-27T09:28:00.677Z,83.10
2017-06-27T09:30:26.962Z,80.90
2017-06-27T09:32:53.962Z,78.50
2017-06-27T09:35:20.222Z,78.30
2017-06-27T09:37:47.284Z,76.60
2017-06-27T09:40:14.331Z,76.70
2017-06-27T09:42:41.335Z,78.50
2017-06-27T09:45:07.608Z,77.60
2017-06-27T09:47:34.626Z,79.40
2017-06-27T09:50:01.653Z,76.10
2017-06-27T09:52:27.950Z,76.00
2017-06-27T09:54:54.222Z,77.20
2017-06-27T09:57:21.495Z,76.40
2017-06-27T09:59:48.530Z,77.40
2017-06-27T10:02:15.650Z,77.70
2017-06-27T10:04:41.936Z,77.50
2017-06-27T10:07:08.249Z,78.20
2017-06-27T10:09:34.507Z,76.90
2017-06-27T10:12:00.774Z,76.20
2017-06-27T10:14:27.057Z,77.70
2017-06-27T10:16:54.843Z,77.00
2017-06-27T10:19:21.132Z,77.00
2017-06-27T10:21:48.141Z,76.40
2017-06-27T10:24:14.435Z,76.30
2017-06-27T10:26:40.692Z,77.30
2017-06-27T10:29:06.985Z,76.50
2017-06-27T10:31:33.262Z,76.10
2017-06-27T10:33:59.551Z,76.10
2017-06-27T10:36:25.826Z,75.30
2017-06-27T10:38:52.106Z,79.30
2017-06-27T10:41:18.392Z,78.00
2017-06-27T10:43:44.684Z,74.80
2017-06-27T10:46:10.988Z,75.60
2017-06-27T10:48:37.261Z,76.70
2017-06-27T10:51:03.562Z,72.20
2017-06-27T10:53:29.876Z,73.70
2017-06-27T10:55:56.224Z,73.10
2017-06-27T10:58:22.506Z,76.80
2017-06-27T11:00:49.539Z,78.30
2017-06-27T11:03:15.821Z,78.20
2017-06-27T11:05:42.100Z,76.10
2017-06-27T11:08:08.371Z,76.70
2017-06-27T11:10:34.655Z,77.60
2017-06-27T11:13:00.929Z,77.30
2017-06-27T11:15:27.190Z,78.00
2017-06-27T11:17:53.489Z,81.30
2017-06-27T11:20:19.751Z,79.90
2017-06-27T11:22:46.019Z,80.30
2017-06-27T11:25:12.319Z,76.60
2017-06-27T11:27:38.586Z,77.60
2017-06-27T11:30:05.629Z,74.60
2017-06-27T11:32:31.909Z,74.50
2017-06-27T11:34:58.180Z,76.40
2017-06-27T11:37:24.451Z,74.90
2017-06-27T11:39:50.724Z,74.30
2017-06-27T11:42:17.005Z,76.60
2017-06-27T11:44:43.266Z,72.90
2017-06-27T11:47:09.542Z,72.60
2017-06-27T11:49:36.588Z,74.20
2017-06-27T11:52:02.895Z,74.00
2017-06-27T11:54:29.173Z,72.00
2017-06-27T11:56:55.471Z,71.70
2017-06-27T11:59:22.499Z,69.80
2017-06-27T12:02:02.006Z,70.20
2017-06-27T12:04:31.120Z,70.00
2017-06-27T12:06:57.378Z,70.80
2017-06-27T12:09:28.781Z,71.70
2017-06-27T12:11:55.105Z,69.30
2017-06-27T12:14:21.364Z,70.00
2017-06-27T12:16:47.641Z,68.70
2017-06-27T12:19:13.939Z,69.00
2017-06-27T12:21:40.974Z,71.30
2017-06-27T12:24:07.237Z,71.10
2017-06-27T12:26:33.519Z,69.40
2017-06-27T12:28:59.786Z,71.20
2017-06-27T12:31:26.791Z,70.70
2017-06-27T12:33:53.174Z,70.60
2017-06-27T12:36:19.464Z,68.80
2017-06-27T12:38:45.727Z,68.80
2017-06-27T12:41:12.731Z,71.60
2017-06-27T12:43:39.020Z,71.50
2017-06-27T12:46:05.302Z,68.50
2017-06-27T12:48:32.328Z,65.30
2017-06-27T12:50:58.630Z,64.90
2017-06-27T12:53:24.907Z,64.70
2017-06-27T12:55:51.179Z,60.10
2017-06-27T12:58:17.466Z,60.40
2017-06-27T13:00:43.741Z,62.00
2017-06-27T13:03:10.029Z,58.80
2017-06-27T13:05:36.304Z,59.30
2017-06-27T13:08:02.587Z,64.10
2017-06-27T13:10:28.876Z,63.70
2017-06-27T13:12:55.138Z,65.40
2017-06-27T13:15:21.417Z,67.70
2017-06-27T13:17:47.689Z,69.20
2017-06-27T13:20:13.953Z,67.10
2017-06-27T13:22:40.249Z,63.60
2017-06-27T13:25:06.748Z,62.50
2017-06-27T13:27:33.034Z,67.20
2017-06-27T13:29:59.587Z,66.90
2017-06-27T13:32:25.884Z,64.30
2017-06-27T13:34:52.307Z,63.90
2017-06-27T13:37:18.577Z,66.30
2017-06-27T13:39:44.865Z,61.20
2017-06-27T13:42:11.142Z,60.30
2017-06-27T13:44:37.426Z,61.10
2017-06-27T13:47:03.701Z,60.20
2017-06-27T13:49:29.988Z,62.70
2017-06-27T13:51:56.264Z,59.20
2017-06-27T13:54:22.544Z,58.50
2017-06-27T13:56:48.837Z,58.90
2017-06-27T13:59:15.102Z,60.90
2017-06-27T14:01:41.398Z,60.40
2017-06-27T14:04:08.443Z,58.90
2017-06-27T14:06:34.722Z,57.40
2017-06-27T14:09:01.773Z,57.20
2017-06-27T14:11:28.063Z,57.10
2017-06-27T14:13:54.367Z,58.80
2017-06-27T14:16:20.639Z,61.00
2017-06-27T14:18:46.926Z,59.30
2017-06-27T14:21:13.183Z,60.40
2017-06-27T14:23:39.456Z,59.60
2017-06-27T14:26:06.478Z,57.80
2017-06-27T14:28:32.764Z,57.70
2017-06-27T14:30:59.014Z,57.60
2017-06-27T14:33:25.271Z,59.20
2017-06-27T14:35:51.543Z,58.50
2017-06-27T14:38:17.816Z,57.50
2017-06-27T14:40:44.082Z,55.30
2017-06-27T14:43:10.381Z,54.50
2017-06-27T14:45:36.644Z,55.90
2017-06-27T14:48:02.920Z,52.30
2017-06-27T14:50:29.195Z,55.70
2017-06-27T14:52:55.481Z,55.30
2017-06-27T14:55:21.772Z,54.60
2017-06-27T14:57:48.053Z,54.20
2017-06-27T15:00:14.322Z,56.00
2017-06-27T15:02:42.332Z,54.30
2017-06-27T15:05:10.405Z,55.40
2017-06-27T15:07:37.961Z,54.50
2017-06-27T15:10:05.679Z,56.00
2017-06-27T15:12:32.699Z,53.30
2017-06-27T15:14:59.678Z,61.00
2017-06-27T15:17:25.969Z,56.90
2017-06-27T15:19:52.334Z,59.70
2017-06-27T15:22:18.633Z,53.30
2017-06-27T15:24:47.699Z,50.30
2017-06-27T15:27:14.235Z,50.30
2017-06-27T15:29:40.517Z,47.60
2017-06-27T15:32:07.524Z,49.50
2017-06-27T15:34:34.330Z,49.30
2017-06-27T15:37:00.617Z,49.50
2017-06-27T15:39:27.658Z,49.50
2017-06-27T15:41:54.713Z,51.30
2017-06-27T15:44:21.000Z,51.20
2017-06-27T15:46:47.320Z,53.70
2017-06-27T15:49:13.615Z,52.50
2017-06-27T15:51:39.905Z,52.80
2017-06-27T15:54:06.211Z,60.50
2017-06-27T15:56:32.512Z,57.30
2017-06-27T15:58:58.813Z,58.80
2017-06-27T16:01:25.089Z,53.40
2017-06-27T16:03:52.194Z,53.40
2017-06-27T16:06:19.210Z,50.00
2017-06-27T16:08:45.506Z,50.40
2017-06-27T16:11:11.788Z,48.00
2017-06-27T16:13:38.835Z,44.70
2017-06-27T16:16:05.138Z,44.70
2017-06-27T16:18:31.445Z,44.90
2017-06-27T16:20:57.740Z,48.40
2017-06-27T16:23:24.757Z,50.40
2017-06-27T16:25:51.045Z,50.40
2017-06-27T16:28:17.310Z,52.30
2017-06-27T16:30:43.612Z,51.90
2017-06-27T16:33:09.886Z,51.30
2017-06-27T16:35:36.183Z,48.50
2017-06-27T16:38:02.487Z,44.10
2017-06-27T16:40:28.776Z,41.90
2017-06-27T16:42:55.070Z,43.60
2017-06-27T16:45:21.381Z,49.10
2017-06-27T16:47:47.670Z,50.90
2017-06-27T16:50:14.732Z,56.50
2017-06-27T16:52:41.751Z,57.50
2017-06-27T16:55:08.068Z,57.30
2017-06-27T16:57:34.344Z,58.50
2017-06-27T17:00:01.361Z,61.40
2017-06-27T17:02:27.662Z,61.30
2017-06-27T17:04:53.956Z,61.00
2017-06-27T17:07:20.236Z,59.40
2017-06-27T17:09:46.558Z,57.40
2017-06-27T17:12:12.890Z,55.40
2017-06-27T17:14:39.187Z,57.30
2017-06-27T17:17:05.453Z,59.70
2017-06-27T17:19:31.743Z,57.50
2017-06-27T17:21:58.017Z,56.10
2017-06-27T17:24:24.328Z,57.40
2017-06-27T17:26:50.608Z,56.20
2017-06-27T17:29:16.891Z,56.60
2017-06-27T17:31:43.151Z,58.20
2017-06-27T17:34:09.437Z,59.70
2017-06-27T17:36:35.700Z,62.70
2017-06-27T17:39:02.026Z,64.80
2017-06-27T17:41:29.109Z,66.80
2017-06-27T17:43:56.119Z,63.80
2017-06-27T17:46:22.409Z,63.70
2017-06-27T17:48:48.715Z,66.50
2017-06-27T17:51:15.005Z,67.10
2017-06-27T17:53:41.298Z,68.20
2017-06-27T17:56:07.577Z,71.00
2017-06-27T17:58:33.898Z,72.70
2017-06-27T18:01:00.284Z,72.70
2017-06-27T18:03:26.569Z,72.40
2017-06-27T18:05:52.908Z,72.00
2017-06-27T18:08:19.238Z,71.40
2017-06-27T18:10:46.272Z,69.80
2017-06-27T18:13:12.565Z,69.80
2017-06-27T18:15:38.874Z,68.70
2017-06-27T18:18:05.189Z,72.50
2017-06-27T18:20:31.496Z,75.30
2017-06-27T18:22:57.769Z,73.30
2017-06-27T18:25:24.069Z,72.70
2017-06-27T18:27:50.416Z,74.60
2017-06-27T18:30:16.726Z,72.60
2017-06-27T18:32:43.049Z,76.40
2017-06-27T18:35:10.092Z,76.90
2017-06-27T18:37:37.133Z,75.50
2017-06-27T18:40:03.485Z,75.40
2017-06-27T18:42:29.780Z,76.90
2017-06-27T18:44:56.147Z,76.30
2017-06-27T18:47:22.601Z,75.80
2017-06-27T18:49:49.038Z,74.10
2017-06-27T18:52:15.455Z,75.30
2017-06-27T18:54:41.888Z,77.40
2017-06-27T18:57:08.360Z,77.60
2017-06-27T18:59:34.705Z,76.60
2017-06-27T19:02:01.877Z,76.70
2017-06-27T19:04:28.490Z,76.60
2017-06-27T19:06:54.912Z,77.80
2017-06-27T19:09:21.469Z,78.70
2017-06-27T19:11:47.953Z,78.40
2017-06-27T19:14:14.555Z,80.90
2017-06-27T19:16:41.057Z,81.10
2017-06-27T19:19:07.481Z,82.00
2017-06-27T19:21:34.047Z,80.20
2017-06-27T19:24:01.197Z,82.00
2017-06-27T19:26:28.368Z,82.10
2017-06-27T19:28:54.977Z,82.00
2017-06-27T19:31:21.418Z,83.60
2017-06-27T19:33:48.549Z,82.10
2017-06-27T19:36:14.924Z,82.00
2017-06-27T19:38:41.427Z,83.00
2017-06-27T19:41:07.920Z,81.90
2017-06-27T19:43:34.440Z,82.90
2017-06-27T19:46:00.886Z,83.50
2017-06-27T19:48:27.274Z,83.20
2017-06-27T19:50:53.708Z,81.40
2017-06-27T19:53:20.029Z,82.80
2017-06-27T19:55:46.329Z,81.80
2017-06-27T19:58:12.599Z,82.40
2017-06-27T20:00:39.647Z,81.30
2017-06-27T20:03:05.913Z,81.10
2017-06-27T20:05:32.188Z,82.90
2017-06-27T20:07:58.465Z,82.00
2017-06-27T20:10:24.748Z,82.80
2017-06-27T20:12:51.091Z,83.90
2017-06-27T20:15:17.362Z,86.30
2017-06-27T20:17:43.636Z,86.90
2017-06-27T20:20:10.031Z,87.00
2017-06-27T20:22:36.300Z,89.50
2017-06-27T20:25:02.574Z,86.60
2017-06-27T20:27:28.936Z,86.40
2017-06-27T20:29:55.185Z,87.00
2017-06-27T20:32:21.529Z,85.60
2017-06-27T20:34:47.885Z,86.00
2017-06-27T20:37:14.971Z,85.80
2017-06-27T20:39:41.238Z,85.70
2017-06-27T20:42:07.638Z,85.40
2017-06-27T20:44:33.954Z,86.20
2017-06-27T20:47:00.411Z,85.90
2017-06-27T20:49:27.510Z,86.70
2017-06-27T20:51:53.780Z,86.70
2017-06-27T20:54:20.039Z,87.50
2017-06-27T20:56:46.637Z,87.00
2017-06-27T20:59:12.953Z,86.10
2017-06-27T21:01:39.266Z,86.80
2017-06-27T21:04:05.536Z,86.70
2017-06-27T21:06:31.864Z,87.60
2017-06-27T21:08:58.141Z,86.90
2017-06-27T21:11:25.154Z,87.10
2017-06-27T21:13:51.545Z,87.80
2017-06-27T21:16:17.864Z,86.80
2017-06-27T21:18:44.140Z,87.40
2017-06-27T21:21:11.280Z,87.60
2017-06-27T21:23:37.537Z,87.80
2017-06-27T21:26:03.777Z,87.40
2017-06-27T21:28:30.879Z,88.60
2017-06-27T21:30:57.195Z,88.50
2017-06-27T21:33:23.440Z,87.90
2017-06-27T21:35:49.709Z,88.20
2017-06-27T21:38:16.725Z,88.70
2017-06-27T21:40:42.987Z,88.70
2017-06-27T21:43:09.995Z,89.20
2017-06-27T21:45:36.335Z,89.00
2017-06-27T21:48:02.584Z,88.70
2017-06-27T21:50:29.609Z,88.70
2017-06-27T21:52:55.866Z,88.60
2017-06-27T21:55:22.901Z,90.30
2017-06-27T21:57:49.189Z,90.20
2017-06-27T22:00:15.444Z,90.00
2017-06-27T22:02:41.734Z,89.80
2017-06-27T22:05:07.990Z,90.00
2017-06-27T22:07:34.261Z,90.40
2017-06-27T22:10:01.249Z,90.20
2017-06-27T22:12:27.521Z,90.10
2017-06-27T22:14:53.793Z,90.40
2017-06-27T22:17:20.073Z,90.50
2017-06-27T22:19:46.324Z,90.80
2017-06-27T22:22:12.616Z,91.00
2017-06-27T22:24:38.863Z,90.80
2017-06-27T22:27:05.163Z,90.80
2017-06-27T22:29:31.424Z,90.60
2017-06-27T22:31:57.698Z,91.30
2017-06-27T22:34:23.967Z,91.40
2017-06-27T22:36:50.228Z,91.30
2017-06-27T22:39:17.241Z,91.80
2017-06-27T22:41:43.590Z,91.80
2017-06-27T22:44:09.967Z,91.40
2017-06-27T22:46:36.252Z,91.60
2017-06-27T22:49:02.524Z,91.80
2017-06-27T22:51:28.794Z,91.90
2017-06-27T22:53:55.060Z,92.00
2017-06-27T22:56:22.239Z,91.70
2017-06-27T22:58:48.587Z,91.60
2017-06-27T23:01:14.856Z,91.90
2017-06-27T23:03:42.420Z,92.10
2017-06-27T23:06:09.464Z,92.20
2017-06-27T23:08:36.490Z,92.10
2017-06-27T23:11:02.785Z,92.00
2017-06-27T23:13:29.055Z,92.50
2017-06-27T23:15:55.309Z,92.70
2017-06-27T23:18:21.602Z,92.50
2017-06-27T23:20:47.866Z,92.70
2017-06-27T23:23:14.154Z,92.90
2017-06-27T23:25:40.467Z,92.80
2017-06-27T23:28:06.761Z,92.40
2017-06-27T23:30:33.040Z,92.40
2017-06-27T23:32:59.316Z,92.90
2017-06-27T23:35:25.586Z,92.70
2017-06-27T23:37:52.695Z,92.50
2017-06-27T23:40:18.967Z,92.70
2017-06-27T23:42:45.248Z,92.70
2017-06-27T23:45:12.250Z,92.60
2017-06-27T23:47:38.552Z,92.90
2017-06-27T23:50:04.821Z,93.10
2017-06-27T23:52:31.107Z,93.10
2017-06-27T23:54:57.377Z,93.10
2017-06-27T23:57:23.727Z,93.20
2017-06-27T23:59:50.762Z,93.20
